Time,TemperatureF,DewpointF,PressureIn,WindDirection,WindDirectionDegrees,WindSpeedMPH,WindSpeedGustMPH,Humidity,HourlyPrecipIn,Conditions,Clouds,dailyrainin,SoftwareType,DateUTC
2013-02-05 09:50:00,47.1,43.4,29.92,SE,135,3.0,3.0,87,0.00,,,0.01,Wunderground v.1.15,2013-02-05 17:50:00,
2013-02-05 09:55:00,47.3,43.6,29.92,ESE,105,2.0,7.0,87,0.00,,,0.01,Wunderground v.1.15,2013-02-05 17:55:00,
2013-02-05 10:00:00,47.6,43.6,29.93,SE,138,3.0,4.0,86,0.00,,,0.01,Wunderground v.1.15,2013-02-05 18:00:00,
2013-02-05 10:05:00,48.1,43.8,29.93,West,271,4.0,8.0,85,0.00,,,0.01,Wunderground v.1.15,2013-02-05 18:05:00,
2013-02-05 10:11:00,48.8,44.2,29.93,SE,130,4.0,4.0,84,0.00,,,0.01,Wunderground v.1.15,2013-02-05 18:11:00,
2013-02-05 10:16:00,48.8,43.9,29.92,SSE,149,4.0,9.0,83,0.00,,,0.01,Wunderground v.1.15,2013-02-05 18:16:00,
2013-02-05 10:22:00,48.7,43.8,29.92,SE,136,3.0,6.0,83,0.00,,,0.01,Wunderground v.1.15,2013-02-05 18:22:00,
2013-02-05 10:28:00,48.4,43.5,29.92,SSE,148,4.0,7.0,83,0.00,,,0.01,Wunderground v.1.15,2013-02-05 18:28:00,
2013-02-05 10:33:00,48.6,43.7,29.93,SSE,167,6.0,10.0,83,0.00,,,0.01,Wunderground v.1.15,2013-02-05 18:33:00,
2013-02-05 10:38:00,48.7,43.8,29.93,South,178,6.0,10.0,83,0.00,,,0.01,Wunderground v.1.15,2013-02-05 18:38:00,
2013-02-05 10:44:00,49.1,44.2,29.93,ESE,121,4.0,10.0,83,0.00,,,0.01,Wunderground v.1.15,2013-02-05 18:44:00,
2013-02-05 10:49:00,49.4,44.1,29.93,SE,127,3.0,10.0,82,0.00,,,0.01,Wunderground v.1.15,2013-02-05 18:49:00,
2013-02-05 10:54:00,49.2,43.9,29.93,SSE,156,5.0,10.0,82,0.00,,,0.01,Wunderground v.1.15,2013-02-05 18:54:00,
2013-02-05 11:00:00,49.0,43.7,29.93,South,191,5.0,10.0,82,0.00,,,0.01,Wunderground v.1.15,2013-02-05 19:00:00,
2013-02-05 11:05:00,49.0,44.1,29.93,SSW,199,4.0,10.0,83,0.00,,,0.01,Wunderground v.1.15,2013-02-05 19:05:00,
2013-02-05 11:11:00,48.8,43.5,29.93,South,173,4.0,10.0,82,0.00,,,0.01,Wunderground v.1.15,2013-02-05 19:11:00,
2013-02-05 11:16:00,48.6,43.7,29.93,SE,134,5.0,12.0,83,0.00,,,0.01,Wunderground v.1.15,2013-02-05 19:16:00,
2013-02-05 11:21:00,48.5,43.6,29.93,SSE,166,7.0,11.0,83,0.00,,,0.01,Wunderground v.1.15,2013-02-05 19:21:00,
2013-02-05 11:27:00,48.5,43.6,29.93,SE,130,6.0,11.0,83,0.00,,,0.01,Wunderground v.1.15,2013-02-05 19:27:00,
2013-02-05 11:32:00,48.5,43.6,29.93,ESE,121,4.0,10.0,83,0.00,,,0.01,Wunderground v.1.15,2013-02-05 19:32:00,
2013-02-05 11:37:00,48.7,43.8,29.92,SSE,160,4.0,10.0,83,0.00,,,0.01,Wunderground v.1.15,2013-02-05 19:37:00,
2013-02-05 11:43:00,48.7,43.8,29.93,SSW,196,5.0,10.0,83,0.00,,,0.01,Wunderground v.1.15,2013-02-05 19:43:00,
2013-02-05 11:48:00,48.8,43.5,29.93,ESE,123,5.0,10.0,82,0.00,,,0.01,Wunderground v.1.15,2013-02-05 19:48:00,
2013-02-05 11:53:00,48.8,43.9,29.93,SE,142,5.0,10.0,83,0.00,,,0.01,Wunderground v.1.15,2013-02-05 19:53:00,
2013-02-05 11:59:00,48.8,43.9,29.93,South,182,6.0,10.0,83,0.00,,,0.01,Wunderground v.1.15,2013-02-05 19:59:00,
2013-02-05 12:04:00,48.7,43.8,29.93,SSE,168,5.0,10.0,83,0.00,,,0.01,Wunderground v.1.15,2013-02-05 20:04:00,
2013-02-05 12:09:00,48.8,44.2,29.92,West,281,4.0,10.0,84,0.00,,,0.01,Wunderground v.1.15,2013-02-05 20:09:00,
2013-02-05 12:15:00,49.0,44.1,29.92,ESE,122,3.0,7.0,83,0.00,,,0.01,Wunderground v.1.15,2013-02-05 20:15:00,
2013-02-05 12:20:00,49.2,43.9,29.92,South,190,4.0,4.0,82,0.00,,,0.01,Wunderground v.1.15,2013-02-05 20:20:00,
2013-02-05 12:25:00,49.7,44.1,29.92,SSE,155,5.0,6.0,81,0.00,,,0.01,Wunderground v.1.15,2013-02-05 20:25:00,
2013-02-05 12:31:00,50.8,43.8,29.92,South,179,5.0,6.0,77,0.00,,,0.01,Wunderground v.1.15,2013-02-05 20:31:00,
2013-02-05 12:36:00,51.4,44.1,29.92,SSE,159,4.0,10.0,76,0.00,,,0.01,Wunderground v.1.15,2013-02-05 20:36:00,
2013-02-05 12:41:00,51.7,43.7,29.92,SSW,203,4.0,4.0,74,0.00,,,0.01,Wunderground v.1.15,2013-02-05 20:41:00,
2013-02-05 12:47:00,51.8,43.4,29.91,South,177,3.0,5.0,73,0.00,,,0.01,Wunderground v.1.15,2013-02-05 20:47:00,
2013-02-05 12:52:00,51.7,43.3,29.91,SSE,150,3.0,3.0,73,0.00,,,0.01,Wunderground v.1.15,2013-02-05 20:52:00,
2013-02-05 12:57:00,51.9,43.5,29.91,ESE,121,3.0,4.0,73,0.00,,,0.01,Wunderground v.1.15,2013-02-05 20:57:00,
2013-02-05 13:03:00,52.0,44.7,29.91,SSE,165,3.0,12.0,76,0.00,,,0.01,Wunderground v.1.15,2013-02-05 21:03:00,
2013-02-05 13:08:00,52.2,44.5,29.91,SSE,156,3.0,12.0,75,0.00,,,0.01,Wunderground v.1.15,2013-02-05 21:08:00,
2013-02-05 13:14:00,52.4,45.1,29.91,SE,134,3.0,12.0,76,0.00,,,0.01,Wunderground v.1.15,2013-02-05 21:14:00,
2013-02-05 13:19:00,52.7,45.3,29.91,ESE,115,3.0,12.0,76,0.00,,,0.01,Wunderground v.1.15,2013-02-05 21:19:00,
2013-02-05 13:24:00,52.8,43.7,29.90,East,79,4.0,12.0,71,0.00,,,0.01,Wunderground v.1.15,2013-02-05 21:24:00,
2013-02-05 13:30:00,52.4,43.6,29.90,South,172,4.0,4.0,72,0.00,,,0.01,Wunderground v.1.15,2013-02-05 21:30:00,
2013-02-05 13:36:00,52.4,43.3,29.90,South,180,3.0,12.0,71,0.00,,,0.01,Wunderground v.1.15,2013-02-05 21:36:00,
2013-02-05 13:41:00,52.6,43.8,29.90,SSW,205,4.0,12.0,72,0.00,,,0.01,Wunderground v.1.15,2013-02-05 21:41:00,
2013-02-05 13:47:00,52.7,42.4,29.90,SW,219,5.0,12.0,68,0.00,,,0.01,Wunderground v.1.15,2013-02-05 21:47:00,
2013-02-05 13:52:00,52.7,42.0,29.90,SSE,165,4.0,12.0,67,0.00,,,0.01,Wunderground v.1.15,2013-02-05 21:52:00,
2013-02-05 13:57:00,52.7,42.0,29.90,South,179,4.0,12.0,67,0.00,,,0.01,Wunderground v.1.15,2013-02-05 21:57:00,
2013-02-05 14:03:00,52.6,41.9,29.90,SE,146,5.0,12.0,67,0.00,,,0.01,Wunderground v.1.15,2013-02-05 22:03:00,
2013-02-05 14:08:00,52.5,41.5,29.90,ESE,111,4.0,12.0,66,0.00,,,0.01,Wunderground v.1.15,2013-02-05 22:08:00,
2013-02-05 14:14:00,52.4,42.1,29.90,SW,216,4.0,12.0,68,0.00,,,0.01,Wunderground v.1.15,2013-02-05 22:14:00,
2013-02-05 14:19:00,52.7,42.4,29.90,SSW,203,4.0,12.0,68,0.00,,,0.01,Wunderground v.1.15,2013-02-05 22:19:00,
2013-02-05 14:24:00,53.1,42.4,29.90,SE,138,3.0,12.0,67,0.00,,,0.01,Wunderground v.1.15,2013-02-05 22:24:00,
2013-02-05 14:30:00,53.3,42.6,29.90,SSW,193,3.0,3.0,67,0.00,,,0.01,Wunderground v.1.15,2013-02-05 22:30:00,
2013-02-05 14:35:00,53.5,42.4,29.89,SSW,192,3.0,12.0,66,0.00,,,0.01,Wunderground v.1.15,2013-02-05 22:35:00,
2013-02-05 14:41:00,53.6,42.1,29.90,South,181,3.0,12.0,65,0.00,,,0.01,Wunderground v.1.15,2013-02-05 22:41:00,
2013-02-05 14:47:00,53.4,41.1,29.89,SSW,199,4.0,12.0,63,0.00,,,0.01,Wunderground v.1.15,2013-02-05 22:47:00,
2013-02-05 14:52:00,53.3,41.4,29.90,SSW,205,5.0,7.0,64,0.00,,,0.01,Wunderground v.1.15,2013-02-05 22:52:00,
2013-02-05 14:57:00,53.1,42.0,29.89,SSW,207,5.0,12.0,66,0.00,,,0.01,Wunderground v.1.15,2013-02-05 22:57:00,
2013-02-05 15:03:00,53.0,41.5,29.89,South,175,4.0,12.0,65,0.00,,,0.01,Wunderground v.1.15,2013-02-05 23:03:00,
2013-02-05 15:08:00,52.9,41.0,29.90,SW,215,4.0,12.0,64,0.00,,,0.01,Wunderground v.1.15,2013-02-05 23:08:00,
2013-02-05 15:14:00,52.9,41.0,29.90,South,175,5.0,12.0,64,0.00,,,0.01,Wunderground v.1.15,2013-02-05 23:14:00,
2013-02-05 15:19:00,53.0,41.1,29.90,West,275,5.0,12.0,64,0.00,,,0.01,Wunderground v.1.15,2013-02-05 23:19:00,
2013-02-05 15:24:00,53.3,41.0,29.90,SSE,167,5.0,12.0,63,0.00,,,0.01,Wunderground v.1.15,2013-02-05 23:24:00,
2013-02-05 15:30:00,53.6,41.3,29.90,South,178,6.0,6.0,63,0.00,,,0.01,Wunderground v.1.15,2013-02-05 23:30:00,
2013-02-05 15:35:00,53.6,41.3,29.90,SE,143,4.0,12.0,63,0.00,,,0.01,Wunderground v.1.15,2013-02-05 23:35:00,
2013-02-05 15:40:00,53.7,41.0,29.90,South,190,5.0,5.0,62,0.00,,,0.01,Wunderground v.1.15,2013-02-05 23:40:00,
2013-02-05 15:46:00,53.5,40.8,29.90,SSW,208,5.0,12.0,62,0.00,,,0.01,Wunderground v.1.15,2013-02-05 23:46:00,
2013-02-05 15:51:00,53.4,41.1,29.90,SW,220,5.0,12.0,63,0.00,,,0.01,Wunderground v.1.15,2013-02-05 23:51:00,
2013-02-05 15:56:00,53.0,40.7,29.90,SW,215,7.0,17.0,63,0.00,,,0.01,Wunderground v.1.15,2013-02-05 23:56:00,
2013-02-05 16:02:00,52.6,40.8,29.90,South,180,7.0,12.0,64,0.00,,,0.01,Wunderground v.1.15,2013-02-06 00:02:00,
2013-02-05 16:07:00,52.3,41.3,29.90,SSW,202,5.0,12.0,66,0.00,,,0.01,Wunderground v.1.15,2013-02-06 00:07:00,
2013-02-05 16:13:00,52.0,41.4,29.91,SSW,213,5.0,12.0,67,0.00,,,0.01,Wunderground v.1.15,2013-02-06 00:13:00,
2013-02-05 16:19:00,51.7,41.9,29.91,WNW,290,5.0,12.0,69,0.00,,,0.01,Wunderground v.1.15,2013-02-06 00:19:00,
2013-02-05 16:24:00,51.3,42.9,29.91,WSW,257,3.0,12.0,73,0.00,,,0.01,Wunderground v.1.15,2013-02-06 00:24:00,
2013-02-05 16:29:00,50.7,43.8,29.92,WNW,292,2.0,12.0,77,0.00,,,0.01,Wunderground v.1.15,2013-02-06 00:29:00,
2013-02-05 16:35:00,49.9,44.0,29.92,West,281,1.0,12.0,80,0.00,,,0.01,Wunderground v.1.15,2013-02-06 00:35:00,
2013-02-05 16:40:00,49.3,44.0,29.93,WNW,290,1.0,1.0,82,0.00,,,0.02,Wunderground v.1.15,2013-02-06 00:40:00,
2013-02-05 16:46:00,48.6,44.0,29.93,SSE,165,2.0,12.0,84,0.09,,,0.03,Wunderground v.1.15,2013-02-06 00:46:00,
2013-02-05 16:51:00,48.1,43.8,29.93,WSW,248,2.0,12.0,85,0.12,,,0.04,Wunderground v.1.15,2013-02-06 00:51:00,
2013-02-05 16:56:00,47.5,43.8,29.93,West,263,2.0,12.0,87,0.06,,,0.04,Wunderground v.1.15,2013-02-06 00:56:00,
2013-02-05 17:02:00,47.0,43.3,29.93,West,260,1.0,12.0,87,0.04,,,0.04,Wunderground v.1.15,2013-02-06 01:02:00,
2013-02-05 17:07:00,46.7,42.4,29.93,SSW,201,2.0,12.0,85,0.00,,,0.04,Wunderground v.1.15,2013-02-06 01:07:00,
2013-02-05 17:13:00,46.4,41.8,29.93,SSW,201,3.0,12.0,84,0.00,,,0.04,Wunderground v.1.15,2013-02-06 01:13:00,
2013-02-05 17:18:00,46.3,41.4,29.93,South,184,3.0,12.0,83,0.00,,,0.04,Wunderground v.1.15,2013-02-06 01:18:00,
2013-02-05 17:24:00,46.1,40.9,29.93,SSW,200,4.0,12.0,82,0.00,,,0.04,Wunderground v.1.15,2013-02-06 01:24:00,
2013-02-05 17:29:00,45.9,41.0,29.93,SSW,197,4.0,12.0,83,0.00,,,0.04,Wunderground v.1.15,2013-02-06 01:29:00,
2013-02-05 17:35:00,45.9,41.0,29.94,SW,216,4.0,12.0,83,0.00,,,0.04,Wunderground v.1.15,2013-02-06 01:35:00,
2013-02-05 17:40:00,45.9,41.0,29.94,SSW,202,5.0,12.0,83,0.00,,,0.04,Wunderground v.1.15,2013-02-06 01:40:00,
2013-02-05 17:45:00,45.8,40.6,29.94,South,186,4.0,12.0,82,0.00,,,0.04,Wunderground v.1.15,2013-02-06 01:45:00,
2013-02-05 17:51:00,45.8,40.9,29.94,South,190,3.0,12.0,83,0.00,,,0.04,Wunderground v.1.15,2013-02-06 01:51:00,
2013-02-05 17:56:00,45.9,41.0,29.94,South,186,3.0,12.0,83,0.00,,,0.04,Wunderground v.1.15,2013-02-06 01:56:00,
2013-02-05 18:02:00,45.9,41.0,29.94,SSE,155,3.0,12.0,83,0.00,,,0.04,Wunderground v.1.15,2013-02-06 02:02:00,
2013-02-05 18:08:00,45.9,41.0,29.94,South,171,2.0,12.0,83,0.00,,,0.04,Wunderground v.1.15,2013-02-06 02:08:00,
2013-02-05 18:13:00,45.9,41.6,29.94,SSW,192,2.0,3.0,85,0.00,,,0.04,Wunderground v.1.15,2013-02-06 02:13:00,
2013-02-05 18:19:00,45.8,41.5,29.94,South,175,3.0,5.0,85,0.00,,,0.05,Wunderground v.1.15,2013-02-06 02:19:00,
2013-02-05 18:24:00,45.8,41.9,29.95,SSW,205,2.0,4.0,86,0.00,,,0.05,Wunderground v.1.15,2013-02-06 02:24:00,
2013-02-05 18:29:00,45.6,41.7,29.94,SSW,196,2.0,4.0,86,0.00,,,0.05,Wunderground v.1.15,2013-02-06 02:29:00,
2013-02-05 18:35:00,45.5,41.9,29.94,SSW,196,1.0,2.0,87,0.00,,,0.05,Wunderground v.1.15,2013-02-06 02:35:00,
2013-02-05 18:40:00,45.5,42.2,29.94,SSW,196,0.0,1.0,88,0.00,,,0.05,Wunderground v.1.15,2013-02-06 02:40:00,
2013-02-05 18:46:00,45.5,42.4,29.95,SSW,196,0.0,1.0,89,0.00,,,0.05,Wunderground v.1.15,2013-02-06 02:46:00,
2013-02-05 18:51:00,45.5,42.2,29.95,SSW,196,0.0,0.0,88,0.00,,,0.05,Wunderground v.1.15,2013-02-06 02:51:00,
2013-02-05 18:57:00,45.4,42.3,29.95,SSW,199,0.0,3.0,89,0.00,,,0.05,Wunderground v.1.15,2013-02-06 02:57:00,
2013-02-05 19:02:00,45.2,42.2,29.95,SSW,199,1.0,13.0,89,0.00,,,0.05,Wunderground v.1.15,2013-02-06 03:02:00,
2013-02-05 19:08:00,45.0,42.0,29.95,SSW,199,0.0,13.0,89,0.00,,,0.05,Wunderground v.1.15,2013-02-06 03:08:00,
2013-02-05 19:13:00,44.9,42.1,29.96,SSW,199,0.0,13.0,90,0.00,,,0.05,Wunderground v.1.15,2013-02-06 03:13:00,
2013-02-05 19:19:00,44.8,42.0,29.96,SE,135,0.0,13.0,90,0.00,,,0.05,Wunderground v.1.15,2013-02-06 03:19:00,
2013-02-05 19:24:00,44.6,41.8,29.96,SE,137,1.0,13.0,90,0.00,,,0.05,Wunderground v.1.15,2013-02-06 03:24:00,
2013-02-05 19:29:00,44.6,41.8,29.96,ESE,123,1.0,13.0,90,0.00,,,0.06,Wunderground v.1.15,2013-02-06 03:29:00,
2013-02-05 19:35:00,44.6,41.8,29.96,SE,132,1.0,13.0,90,0.00,,,0.06,Wunderground v.1.15,2013-02-06 03:35:00,
2013-02-05 19:41:00,44.7,41.9,29.96,SE,132,0.0,13.0,90,0.00,,,0.06,Wunderground v.1.15,2013-02-06 03:41:00,
2013-02-05 19:46:00,44.7,41.9,29.96,SE,132,0.0,13.0,90,0.00,,,0.06,Wunderground v.1.15,2013-02-06 03:46:00,
2013-02-05 19:52:00,44.7,41.9,29.97,SE,132,0.0,13.0,90,0.00,,,0.06,Wunderground v.1.15,2013-02-06 03:52:00,
2013-02-05 19:58:00,44.7,42.2,29.97,SE,132,1.0,13.0,91,0.00,,,0.06,Wunderground v.1.15,2013-02-06 03:58:00,
2013-02-05 20:03:00,44.7,42.2,29.97,SSW,201,1.0,13.0,91,0.00,,,0.06,Wunderground v.1.15,2013-02-06 04:03:00,
2013-02-05 20:08:00,44.7,42.2,29.97,South,171,1.0,13.0,91,0.00,,,0.06,Wunderground v.1.15,2013-02-06 04:08:00,
2013-02-05 20:14:00,44.6,42.1,29.97,SSE,157,2.0,13.0,91,0.00,,,0.07,Wunderground v.1.15,2013-02-06 04:14:00,
2013-02-05 20:20:00,44.6,42.1,29.97,SE,146,2.0,13.0,91,0.00,,,0.07,Wunderground v.1.15,2013-02-06 04:20:00,
2013-02-05 20:25:00,44.6,41.8,29.97,SE,146,2.0,13.0,90,0.00,,,0.07,Wunderground v.1.15,2013-02-06 04:25:00,
2013-02-05 20:31:00,44.7,41.9,29.98,SE,142,2.0,13.0,90,0.00,,,0.07,Wunderground v.1.15,2013-02-06 04:31:00,
2013-02-05 20:36:00,44.7,41.9,29.98,SSE,154,2.0,13.0,90,0.00,,,0.07,Wunderground v.1.15,2013-02-06 04:36:00,
2013-02-05 20:42:00,44.7,41.9,29.99,SSE,153,1.0,13.0,90,0.00,,,0.07,Wunderground v.1.15,2013-02-06 04:42:00,
2013-02-05 20:47:00,44.7,41.9,29.99,SSE,161,1.0,13.0,90,0.00,,,0.07,Wunderground v.1.15,2013-02-06 04:47:00,
2013-02-05 20:53:00,44.7,41.9,29.98,SSE,161,2.0,13.0,90,0.00,,,0.07,Wunderground v.1.15,2013-02-06 04:53:00,
2013-02-05 20:58:00,44.6,41.8,29.98,SSE,159,1.0,13.0,90,0.00,,,0.08,Wunderground v.1.15,2013-02-06 04:58:00,
2013-02-05 21:00:00,44.6,41.8,29.98,SSE,159,1.0,1.0,90,0.00,,,0.08,Wunderground v.1.15,2013-02-06 05:00:00,
2013-02-05 21:01:00,44.6,41.8,29.98,ESE,111,1.0,3.0,90,0.00,,,0.08,Wunderground v.1.15,2013-02-06 05:01:00,
2013-02-05 21:04:00,44.5,41.5,29.98,SE,134,2.0,13.0,89,0.00,,,0.08,Wunderground v.1.15,2013-02-06 05:04:00,
2013-02-05 21:07:00,44.5,41.5,29.98,SE,134,1.0,13.0,89,0.00,,,0.08,Wunderground v.1.15,2013-02-06 05:07:00,
2013-02-05 21:13:00,44.3,41.6,29.98,SE,134,1.0,13.0,90,0.00,,,0.08,Wunderground v.1.15,2013-02-06 05:13:00,
2013-02-05 21:19:00,44.1,41.4,29.99,SE,146,1.0,13.0,90,0.00,,,0.08,Wunderground v.1.15,2013-02-06 05:19:00,
2013-02-05 21:24:00,43.9,41.2,29.99,SE,142,1.0,13.0,90,0.00,,,0.08,Wunderground v.1.15,2013-02-06 05:24:00,
2013-02-05 21:29:00,43.9,41.4,29.99,SE,144,1.0,13.0,91,0.00,,,0.08,Wunderground v.1.15,2013-02-06 05:29:00,
2013-02-05 21:34:00,43.9,41.4,29.99,SSE,155,1.0,13.0,91,0.00,,,0.08,Wunderground v.1.15,2013-02-06 05:34:00,
2013-02-05 21:40:00,43.9,41.2,30.00,SSE,163,2.0,2.0,90,0.00,,,0.09,Wunderground v.1.15,2013-02-06 05:40:00,
2013-02-05 21:45:00,43.9,41.2,30.00,South,185,1.0,13.0,90,0.00,,,0.09,Wunderground v.1.15,2013-02-06 05:45:00,
2013-02-05 21:51:00,43.9,41.2,30.00,South,181,2.0,13.0,90,0.00,,,0.09,Wunderground v.1.15,2013-02-06 05:51:00,
2013-02-05 21:57:00,43.8,41.1,30.00,South,178,1.0,13.0,90,0.00,,,0.10,Wunderground v.1.15,2013-02-06 05:57:00,
2013-02-05 22:02:00,43.8,41.1,30.00,SE,140,1.0,13.0,90,0.00,,,0.10,Wunderground v.1.15,2013-02-06 06:02:00,
2013-02-05 22:07:00,43.7,41.0,30.00,SSE,159,2.0,13.0,90,0.00,,,0.10,Wunderground v.1.15,2013-02-06 06:07:00,
2013-02-05 22:12:00,43.6,40.9,30.00,SE,136,2.0,13.0,90,0.00,,,0.10,Wunderground v.1.15,2013-02-06 06:12:00,
2013-02-05 22:18:00,43.6,40.9,30.00,SE,146,2.0,13.0,90,0.00,,,0.10,Wunderground v.1.15,2013-02-06 06:18:00,
2013-02-05 22:23:00,43.6,41.1,30.00,SSE,157,2.0,13.0,91,0.00,,,0.10,Wunderground v.1.15,2013-02-06 06:23:00,
2013-02-05 22:28:00,43.5,41.0,30.00,South,169,2.0,13.0,91,0.00,,,0.10,Wunderground v.1.15,2013-02-06 06:28:00,
2013-02-05 22:34:00,43.5,41.0,30.00,SSE,151,3.0,13.0,91,0.00,,,0.10,Wunderground v.1.15,2013-02-06 06:34:00,
2013-02-05 22:39:00,43.5,41.0,30.00,SSE,148,3.0,13.0,91,0.00,,,0.10,Wunderground v.1.15,2013-02-06 06:39:00,
2013-02-05 22:45:00,43.6,41.1,30.00,ESE,111,2.0,13.0,91,0.00,,,0.10,Wunderground v.1.15,2013-02-06 06:45:00,
2013-02-05 22:50:00,43.6,41.1,30.00,SSE,162,2.0,13.0,91,0.00,,,0.10,Wunderground v.1.15,2013-02-06 06:50:00,
2013-02-05 22:55:00,43.5,41.0,30.01,ESE,115,2.0,13.0,91,0.00,,,0.10,Wunderground v.1.15,2013-02-06 06:55:00,
2013-02-05 23:00:00,43.5,40.8,30.01,SSE,164,3.0,3.0,90,0.00,,,0.10,Wunderground v.1.15,2013-02-06 07:00:00,